Time;durP1;ratioP1;P1;durP2;ratioP2;P2;SDS_P1;SDS_P2;PMS_P1;PMS_P2;Temp;Humidity;BMP_temperature;BMP_pressure;BME280_temperature;BME280_humidity;BME280_pressure;Samples;Min_cycle;Max_cycle;Signal;HPM_P1;HPM_P2
2022/09/08 00:01:22;;;;;;;;;;;15.20;99.90;;;;;;4923400;29;19926;-75
2022/09/08 00:03:49;;;;;;;;;;;15.10;99.90;;;;;;4907087;29;19945;-75
2022/09/08 00:06:16;;;;;;;;;;;15.20;99.90;;;;;;4921998;29;19958;-75
2022/09/08 00:08:43;;;;;;;;;;;15.20;99.90;;;;;;4923642;29;19923;-75
2022/09/08 00:11:10;;;;;;;;;;;15.20;99.90;;;;;;4922954;29;20191;-75
2022/09/08 00:13:36;;;;;;;;;;;15.10;99.90;;;;;;4923469;29;19966;-75
2022/09/08 00:16:02;;;;;;;;;;;15.10;99.90;;;;;;4923770;29;19925;-74
2022/09/08 00:18:28;;;;;;;;;;;15.10;99.90;;;;;;4921468;29;19919;-74
2022/09/08 00:20:54;;;;;;;;;;;15.20;99.90;;;;;;4904542;29;20379;-75
2022/09/08 00:23:19;;;;;;;;;;;15.20;99.90;;;;;;4922274;29;19930;-75
2022/09/08 00:25:45;;;;;;;;;;;15.30;99.90;;;;;;4920932;29;19925;-75
2022/09/08 00:28:11;;;;;;;;;;;15.30;99.90;;;;;;4920606;29;20231;-75
2022/09/08 00:30:37;;;;;;;;;;;15.30;99.90;;;;;;4900366;29;20226;-75
2022/09/08 00:33:02;;;;;;;;;;;15.30;99.90;;;;;;4914355;29;20227;-72
2022/09/08 00:35:28;;;;;;;;;;;15.40;99.90;;;;;;4918982;29;19969;-74
2022/09/08 00:37:53;;;;;;;;;;;15.40;99.90;;;;;;4921497;29;20006;-74
2022/09/08 00:40:20;;;;;;;;;;;15.40;99.90;;;;;;4920973;29;20028;-75
2022/09/08 00:42:46;;;;;;;;;;;15.40;99.90;;;;;;4922359;29;20017;-74
2022/09/08 00:45:12;;;;;;;;;;;15.40;99.90;;;;;;4891347;29;20010;-75
2022/09/08 00:47:44;;;;;;;;;;;15.40;99.90;;;;;;4891676;29;19949;-75
2022/09/08 00:50:17;;;;;;;;;;;15.30;99.90;;;;;;4920620;29;20026;-75
2022/09/08 00:52:47;;;;;;;;;;;15.30;99.90;;;;;;4905208;29;19923;-75
2022/09/08 00:55:13;;;;;;;;;;;15.20;99.90;;;;;;4918389;29;19957;-75
2022/09/08 00:57:38;;;;;;;;;;;15.20;99.90;;;;;;4902541;29;20346;-75
2022/09/08 01:00:05;;;;;;;;;;;15.30;99.90;;;;;;4901801;29;20010;-75
2022/09/08 01:02:31;;;;;;;;;;;15.30;99.90;;;;;;4901173;29;19923;-74
2022/09/08 01:05:07;;;;;;;;;;;15.30;99.90;;;;;;4917670;29;20252;-75
2022/09/08 01:13:08;;;;;;;;;;;15.20;99.90;;;;;;4920500;29;20398;-75
2022/09/08 01:15:34;;;;;;;;;;;15.20;99.90;;;;;;4917234;29;19930;-73
2022/09/08 01:18:00;;;;;;;;;;;15.20;99.90;;;;;;4917845;29;20623;-73
2022/09/08 01:20:41;;;;;;;;;;;15.20;99.90;;;;;;4918087;29;20320;-73
2022/09/08 01:23:33;;;;;;;;;;;15.20;99.90;;;;;;4919547;29;19927;-72
2022/09/08 01:26:06;;;;;;;;;;;15.30;99.90;;;;;;4919131;29;20002;-73
2022/09/08 01:28:36;;;;;;;;;;;15.30;99.90;;;;;;4902693;29;20042;-74
2022/09/08 01:31:02;;;;;;;;;;;15.30;99.90;;;;;;4914918;29;20496;-73
2022/09/08 01:33:28;;;;;;;;;;;15.20;99.90;;;;;;4901797;29;20340;-73
2022/09/08 01:35:53;;;;;;;;;;;15.20;99.90;;;;;;4919590;29;19919;-74
2022/09/08 01:38:19;;;;;;;;;;;15.20;99.90;;;;;;4919861;29;19961;-73
2022/09/08 01:40:45;;;;;;;;;;;15.20;99.90;;;;;;4920598;29;19918;-74
2022/09/08 01:43:10;;;;;;;;;;;15.20;99.90;;;;;;4923318;29;19915;-73
2022/09/08 01:45:36;;;;;;;;;;;15.30;99.90;;;;;;4921255;29;19918;-73
2022/09/08 01:48:02;;;;;;;;;;;15.30;99.90;;;;;;4924002;29;19923;-73
2022/09/08 01:50:28;;;;;;;;;;;15.30;99.90;;;;;;4913953;29;20001;-73
2022/09/08 01:52:54;;;;;;;;;;;15.30;99.90;;;;;;4915124;29;19919;-73
2022/09/08 01:55:19;;;;;;;;;;;15.30;99.90;;;;;;4919382;29;19929;-72
2022/09/08 01:57:45;;;;;;;;;;;15.30;99.90;;;;;;4907308;29;20022;-73
2022/09/08 02:00:11;;;;;;;;;;;15.30;99.90;;;;;;4913073;29;19923;-79
2022/09/08 02:02:37;;;;;;;;;;;15.30;99.90;;;;;;4921098;29;20181;-78
2022/09/08 02:05:02;;;;;;;;;;;15.30;99.90;;;;;;4921518;29;20355;-77
2022/09/08 02:07:28;;;;;;;;;;;15.20;99.90;;;;;;4901082;29;19927;-76
2022/09/08 02:09:53;;;;;;;;;;;15.30;99.90;;;;;;4921009;29;19929;-79
2022/09/08 02:12:19;;;;;;;;;;;15.30;99.90;;;;;;4919393;29;19918;-77
2022/09/08 02:14:45;;;;;;;;;;;15.20;99.90;;;;;;4919187;29;20054;-78
2022/09/08 02:17:10;;;;;;;;;;;15.20;99.90;;;;;;4920761;29;19923;-74
2022/09/08 02:19:36;;;;;;;;;;;15.20;99.90;;;;;;4920427;29;20013;-74
2022/09/08 02:22:01;;;;;;;;;;;15.20;99.90;;;;;;4919790;29;20454;-73
2022/09/08 02:24:27;;;;;;;;;;;15.10;99.90;;;;;;4918791;29;19960;-74
2022/09/08 02:26:53;;;;;;;;;;;15.10;99.90;;;;;;4918340;29;19926;-74
2022/09/08 02:29:19;;;;;;;;;;;15.10;99.90;;;;;;4920179;29;19958;-73
2022/09/08 02:31:44;;;;;;;;;;;15.10;99.90;;;;;;4920421;29;20029;-73
2022/09/08 02:34:10;;;;;;;;;;;15.10;99.90;;;;;;4920428;29;19919;-73
2022/09/08 02:36:36;;;;;;;;;;;15.10;99.90;;;;;;4913192;29;19967;-74
2022/09/08 02:39:01;;;;;;;;;;;15.10;99.90;;;;;;4916015;29;19938;-74
2022/09/08 02:41:27;;;;;;;;;;;15.10;99.90;;;;;;4920457;29;19925;-74
2022/09/08 02:43:53;;;;;;;;;;;15.10;99.90;;;;;;4903373;29;20148;-73
2022/09/08 02:46:19;;;;;;;;;;;15.10;99.90;;;;;;4922479;29;20111;-73
2022/09/08 02:48:44;;;;;;;;;;;15.10;99.90;;;;;;4920515;29;20013;-74
2022/09/08 02:51:11;;;;;;;;;;;15.10;99.90;;;;;;4920121;29;19983;-73
2022/09/08 02:53:38;;;;;;;;;;;15.00;99.90;;;;;;4921233;29;19946;-73
2022/09/08 02:56:04;;;;;;;;;;;14.90;99.90;;;;;;4922485;29;19919;-74
2022/09/08 02:58:30;;;;;;;;;;;14.90;99.90;;;;;;4902640;29;20387;-74
2022/09/08 03:00:55;;;;;;;;;;;14.90;99.90;;;;;;4887539;29;19918;-74
2022/09/08 03:03:22;;;;;;;;;;;14.80;99.90;;;;;;4919399;29;20429;-73
2022/09/08 03:05:48;;;;;;;;;;;14.90;99.90;;;;;;4902337;29;19923;-73
2022/09/08 03:08:14;;;;;;;;;;;15.00;99.90;;;;;;4905615;29;19931;-74
2022/09/08 03:10:40;;;;;;;;;;;15.00;99.90;;;;;;4905915;29;19923;-74
2022/09/08 03:13:06;;;;;;;;;;;15.00;99.90;;;;;;4920771;29;20418;-74
2022/09/08 03:15:32;;;;;;;;;;;15.00;99.90;;;;;;4921588;29;19925;-74
2022/09/08 03:17:58;;;;;;;;;;;15.10;99.90;;;;;;4919992;29;20340;-85
2022/09/08 03:20:23;;;;;;;;;;;15.10;99.90;;;;;;4922109;29;19926;-84
2022/09/08 03:22:49;;;;;;;;;;;15.00;99.90;;;;;;4921263;29;19981;-81
2022/09/08 03:25:15;;;;;;;;;;;15.10;99.90;;;;;;4919867;29;20382;-81
2022/09/08 03:27:41;;;;;;;;;;;15.00;99.90;;;;;;4921571;29;20194;-77
2022/09/08 03:30:11;;;;;;;;;;;15.00;99.90;;;;;;4907062;29;20064;-75
2022/09/08 03:32:38;;;;;;;;;;;15.00;99.90;;;;;;4923219;29;20379;-73
2022/09/08 03:35:05;;;;;;;;;;;14.90;99.90;;;;;;4906866;29;19962;-74
2022/09/08 03:37:31;;;;;;;;;;;14.90;99.90;;;;;;4922086;29;19926;-73
2022/09/08 03:39:56;;;;;;;;;;;14.90;99.90;;;;;;4923605;29;19923;-73
2022/09/08 03:42:22;;;;;;;;;;;14.80;99.90;;;;;;4923425;29;19919;-73
2022/09/08 03:44:47;;;;;;;;;;;14.80;99.90;;;;;;4923440;29;19954;-73
2022/09/08 03:47:13;;;;;;;;;;;14.60;99.90;;;;;;4922417;29;20082;-73
2022/09/08 03:49:38;;;;;;;;;;;14.60;99.90;;;;;;4921695;29;19915;-73
2022/09/08 03:52:05;;;;;;;;;;;14.50;99.90;;;;;;4904112;29;20023;-73
2022/09/08 03:54:49;;;;;;;;;;;14.50;99.90;;;;;;4922867;29;19970;-73
2022/09/08 03:57:16;;;;;;;;;;;14.50;99.90;;;;;;4922057;29;19919;-74
2022/09/08 03:59:42;;;;;;;;;;;14.40;99.90;;;;;;4921298;29;20424;-73
2022/09/08 04:02:08;;;;;;;;;;;14.30;99.90;;;;;;4922853;29;19982;-73
2022/09/08 04:04:33;;;;;;;;;;;14.20;99.90;;;;;;4921867;29;19922;-71
2022/09/08 04:06:59;;;;;;;;;;;14.20;99.90;;;;;;4922434;29;19962;-73
2022/09/08 04:09:25;;;;;;;;;;;14.20;99.90;;;;;;4913269;29;20505;-73
2022/09/08 04:11:50;;;;;;;;;;;14.10;99.90;;;;;;4905811;29;19919;-73
2022/09/08 04:14:16;;;;;;;;;;;14.10;99.90;;;;;;4924387;29;20264;-72
2022/09/08 04:16:42;;;;;;;;;;;14.10;99.90;;;;;;4920830;29;20358;-73
2022/09/08 04:19:08;;;;;;;;;;;14.00;99.90;;;;;;4919879;29;19915;-72
2022/09/08 04:21:33;;;;;;;;;;;14.00;99.90;;;;;;4921281;29;19946;-73
2022/09/08 04:24:01;;;;;;;;;;;14.00;99.90;;;;;;4922463;29;19915;-73
2022/09/08 04:26:27;;;;;;;;;;;14.00;99.90;;;;;;4923858;29;20566;-72
2022/09/08 04:28:53;;;;;;;;;;;14.00;99.90;;;;;;4923567;29;20571;-72
2022/09/08 04:31:19;;;;;;;;;;;14.00;99.90;;;;;;4922169;29;20013;-72
2022/09/08 04:33:45;;;;;;;;;;;14.00;99.90;;;;;;4919522;29;19918;-72
2022/09/08 04:36:13;;;;;;;;;;;14.10;99.90;;;;;;4918999;29;20343;-72
2022/09/08 04:38:39;;;;;;;;;;;14.10;99.90;;;;;;4921400;29;19937;-72
2022/09/08 04:41:09;;;;;;;;;;;14.10;99.90;;;;;;4921882;29;19965;-72
2022/09/08 04:43:35;;;;;;;;;;;14.10;99.90;;;;;;4922761;29;19919;-72
2022/09/08 04:46:05;;;;;;;;;;;14.00;99.90;;;;;;4923794;29;20019;-72
2022/09/08 04:48:31;;;;;;;;;;;14.00;99.90;;;;;;4922383;29;19938;-72
2022/09/08 04:50:57;;;;;;;;;;;14.00;99.90;;;;;;4922563;29;19949;-72
2022/09/08 04:53:23;;;;;;;;;;;14.00;99.90;;;;;;4921335;29;19925;-72
2022/09/08 04:55:49;;;;;;;;;;;14.00;99.90;;;;;;4917996;29;19918;-72
2022/09/08 04:58:15;;;;;;;;;;;14.10;99.90;;;;;;4920045;29;19974;-72
2022/09/08 05:00:40;;;;;;;;;;;14.20;99.90;;;;;;4920135;29;19994;-72
2022/09/08 05:03:06;;;;;;;;;;;14.30;99.90;;;;;;4919506;29;19918;-72
2022/09/08 05:05:34;;;;;;;;;;;14.40;99.90;;;;;;4919719;29;19919;-73
2022/09/08 05:08:00;;;;;;;;;;;14.50;99.90;;;;;;4918677;29;19927;-73
2022/09/08 05:10:27;;;;;;;;;;;14.50;99.90;;;;;;4919242;29;19931;-75
2022/09/08 05:12:53;;;;;;;;;;;14.50;99.90;;;;;;4922329;29;20386;-77
2022/09/08 05:15:19;;;;;;;;;;;14.60;99.90;;;;;;4922385;29;19919;-83
2022/09/08 05:17:45;;;;;;;;;;;14.60;99.90;;;;;;4924230;29;20236;-84
2022/09/08 05:20:11;;;;;;;;;;;14.60;99.90;;;;;;4922282;29;20577;-80
2022/09/08 05:22:37;;;;;;;;;;;14.70;99.90;;;;;;4924018;29;19919;-79
2022/09/08 05:25:03;;;;;;;;;;;14.70;99.90;;;;;;4905774;29;19923;-79
2022/09/08 05:27:29;;;;;;;;;;;14.70;99.90;;;;;;4922987;29;19926;-78
2022/09/08 05:29:55;;;;;;;;;;;14.70;99.90;;;;;;4904039;29;19919;-77
2022/09/08 05:32:20;;;;;;;;;;;14.70;99.90;;;;;;4906062;29;20002;-78
2022/09/08 05:34:46;;;;;;;;;;;14.60;99.90;;;;;;4921410;29;20439;-78
2022/09/08 05:37:12;;;;;;;;;;;14.70;99.90;;;;;;4922730;29;19918;-79
2022/09/08 05:39:38;;;;;;;;;;;14.70;99.90;;;;;;4925345;29;20487;-84
2022/09/08 05:42:04;;;;;;;;;;;14.70;99.90;;;;;;4907720;29;19911;-87
2022/09/08 05:44:30;;;;;;;;;;;14.80;99.90;;;;;;4919920;29;19925;-86
2022/09/08 05:46:55;;;;;;;;;;;14.80;99.90;;;;;;4924079;29;19955;-88
2022/09/08 05:49:21;;;;;;;;;;;14.80;99.90;;;;;;4926864;29;19985;-86
2022/09/08 05:51:47;;;;;;;;;;;14.80;99.90;;;;;;4924862;29;19926;-87
2022/09/08 05:54:13;;;;;;;;;;;14.80;99.90;;;;;;4923514;29;19923;-79
2022/09/08 05:56:39;;;;;;;;;;;14.80;99.90;;;;;;4922711;29;20005;-79
2022/09/08 05:59:04;;;;;;;;;;;14.70;99.90;;;;;;4921553;29;20022;-76
2022/09/08 06:01:31;;;;;;;;;;;14.70;99.90;;;;;;4920557;29;20197;-75
2022/09/08 06:03:57;;;;;;;;;;;14.70;99.90;;;;;;4919921;29;19947;-75
2022/09/08 06:06:23;;;;;;;;;;;14.70;99.90;;;;;;4918784;29;19919;-75
2022/09/08 06:08:48;;;;;;;;;;;14.70;99.90;;;;;;4920806;29;19956;-75
2022/09/08 06:11:14;;;;;;;;;;;14.70;99.90;;;;;;4921621;29;20357;-80
2022/09/08 06:13:39;;;;;;;;;;;14.70;99.90;;;;;;4922406;29;19930;-84
2022/09/08 06:16:09;;;;;;;;;;;14.70;99.90;;;;;;4905167;29;21452;-83
2022/09/08 06:18:36;;;;;;;;;;;14.70;99.90;;;;;;4905295;29;19966;-79
2022/09/08 06:21:05;;;;;;;;;;;14.70;99.90;;;;;;4922200;29;20378;-79
2022/09/08 06:23:31;;;;;;;;;;;14.70;99.90;;;;;;4904056;29;20385;-78
2022/09/08 06:25:57;;;;;;;;;;;14.60;99.90;;;;;;4919076;29;19919;-75
2022/09/08 06:28:41;;;;;;;;;;;14.60;99.90;;;;;;4917472;29;19927;-75
2022/09/08 06:31:08;;;;;;;;;;;14.60;99.90;;;;;;4915983;29;19923;-75
2022/09/08 06:33:37;;;;;;;;;;;14.60;99.90;;;;;;4918826;29;19970;-75
2022/09/08 06:36:09;;;;;;;;;;;14.70;99.90;;;;;;4917784;29;20429;-75
2022/09/08 06:38:42;;;;;;;;;;;14.70;99.90;;;;;;4914806;29;19950;-75
2022/09/08 06:41:17;;;;;;;;;;;14.60;99.90;;;;;;4910746;29;19925;-75
2022/09/08 06:43:45;;;;;;;;;;;14.60;99.90;;;;;;4910734;29;19922;-76
2022/09/08 06:46:20;;;;;;;;;;;14.60;99.90;;;;;;4894047;29;19962;-77
2022/09/08 06:48:45;;;;;;;;;;;14.60;99.90;;;;;;4898766;29;20046;-78
2022/09/08 06:51:16;;;;;;;;;;;14.60;99.90;;;;;;4921698;29;20354;-76
2022/09/08 06:53:57;;;;;;;;;;;14.60;99.90;;;;;;4904882;29;19915;-78
2022/09/08 06:56:47;;;;;;;;;;;14.60;99.90;;;;;;4904037;29;20528;-76
2022/09/08 06:59:31;;;;;;;;;;;14.60;99.90;;;;;;4900557;29;19941;-76
2022/09/08 07:02:06;;;;;;;;;;;14.50;99.90;;;;;;4896154;29;20243;-75
2022/09/08 07:04:35;;;;;;;;;;;14.50;99.90;;;;;;4915838;29;19924;-75
2022/09/08 07:07:21;;;;;;;;;;;14.50;99.90;;;;;;4922312;29;19931;-75
2022/09/08 07:09:47;;;;;;;;;;;14.50;99.90;;;;;;4906551;29;19926;-75
2022/09/08 07:12:12;;;;;;;;;;;14.50;99.90;;;;;;4912710;29;19919;-75
2022/09/08 07:14:57;;;;;;;;;;;14.60;99.90;;;;;;4895830;29;20029;-75
2022/09/08 07:17:31;;;;;;;;;;;14.60;99.90;;;;;;4912786;29;19938;-75
2022/09/08 07:19:56;;;;;;;;;;;14.60;99.90;;;;;;4918547;29;20366;-73
2022/09/08 07:22:31;;;;;;;;;;;14.60;99.90;;;;;;4910129;29;19929;-74
2022/09/08 07:25:06;;;;;;;;;;;14.60;99.90;;;;;;4892822;29;19950;-72
2022/09/08 07:27:32;;;;;;;;;;;14.60;99.90;;;;;;4911076;29;19942;-71
2022/09/08 07:30:00;;;;;;;;;;;14.70;99.90;;;;;;4913720;29;19919;-71
2022/09/08 07:32:30;;;;;;;;;;;14.70;99.90;;;;;;4912082;29;21320;-71
2022/09/08 07:35:01;;;;;;;;;;;14.70;99.90;;;;;;4920691;29;19918;-71
2022/09/08 07:37:42;;;;;;;;;;;14.80;99.90;;;;;;4911496;29;19934;-72
2022/09/08 07:40:16;;;;;;;;;;;14.80;99.90;;;;;;4908473;29;19923;-71
2022/09/08 07:42:43;;;;;;;;;;;15.00;99.90;;;;;;4909986;29;20460;-73
2022/09/08 07:45:12;;;;;;;;;;;15.20;99.90;;;;;;4909950;29;19957;-72
2022/09/08 07:47:42;;;;;;;;;;;15.30;99.90;;;;;;4913930;29;19937;-72
2022/09/08 07:50:16;;;;;;;;;;;15.30;99.90;;;;;;4916863;29;19918;-73
2022/09/08 07:53:08;;;;;;;;;;;15.50;99.90;;;;;;4920217;29;20368;-72
2022/09/08 07:55:44;;;;;;;;;;;15.50;99.90;;;;;;4918434;29;20438;-72
2022/09/08 07:58:15;;;;;;;;;;;15.60;99.90;;;;;;4924471;29;19919;-71
2022/09/08 08:00:40;;;;;;;;;;;15.60;99.90;;;;;;4920823;29;20408;-72
2022/09/08 08:03:28;;;;;;;;;;;15.60;99.90;;;;;;4919868;29;19926;-72
2022/09/08 08:06:04;;;;;;;;;;;15.60;99.90;;;;;;4919419;29;19919;-72
2022/09/08 08:08:33;;;;;;;;;;;15.70;99.90;;;;;;4921100;29;20366;-72
2022/09/08 08:11:15;;;;;;;;;;;15.90;99.90;;;;;;4922576;29;20318;-73
2022/09/08 08:13:49;;;;;;;;;;;16.10;99.90;;;;;;4923234;29;19927;-73
2022/09/08 08:16:20;;;;;;;;;;;16.10;99.90;;;;;;4918061;29;19926;-74
2022/09/08 08:18:55;;;;;;;;;;;16.10;99.90;;;;;;4910656;29;20266;-73
2022/09/08 08:21:43;;;;;;;;;;;16.20;99.90;;;;;;4909393;29;20358;-73
2022/09/08 08:24:09;;;;;;;;;;;16.60;99.90;;;;;;4884120;29;19970;-73
2022/09/08 08:26:46;;;;;;;;;;;16.80;99.90;;;;;;4908745;29;20421;-74
2022/09/08 08:29:27;;;;;;;;;;;17.20;99.90;;;;;;4911955;29;19926;-74
2022/09/08 08:31:57;;;;;;;;;;;17.40;99.90;;;;;;4914888;29;20339;-73
2022/09/08 08:34:23;;;;;;;;;;;17.90;99.90;;;;;;4911325;29;19919;-75
2022/09/08 08:36:50;;;;;;;;;;;18.50;99.90;;;;;;4917833;29;20841;-74
2022/09/08 08:39:17;;;;;;;;;;;19.30;99.90;;;;;;4914114;29;20013;-74
2022/09/08 08:41:43;;;;;;;;;;;20.60;99.90;;;;;;4910787;29;19919;-74
2022/09/08 08:44:14;;;;;;;;;;;20.40;99.90;;;;;;4921432;29;19919;-73
2022/09/08 08:46:52;;;;;;;;;;;20.20;99.90;;;;;;4923082;29;20334;-73
2022/09/08 08:49:23;;;;;;;;;;;19.70;99.90;;;;;;4917551;29;20243;-73
2022/09/08 08:52:07;;;;;;;;;;;19.30;99.90;;;;;;4917595;29;20335;-73
2022/09/08 08:54:35;;;;;;;;;;;18.80;99.90;;;;;;4898646;29;19965;-73
2022/09/08 08:57:01;;;;;;;;;;;18.40;99.90;;;;;;4904145;29;20001;-73
2022/09/08 08:59:26;;;;;;;;;;;18.70;99.90;;;;;;4921452;29;20009;-72
2022/09/08 09:02:04;;;;;;;;;;;21.30;99.90;;;;;;4924397;29;20383;-73
2022/09/08 09:04:51;;;;;;;;;;;22.70;99.90;;;;;;4919994;29;20009;-73
2022/09/08 09:07:16;;;;;;;;;;;22.70;99.90;;;;;;4919735;29;19927;-74
2022/09/08 09:09:45;;;;;;;;;;;21.70;99.90;;;;;;4903764;29;19925;-78
2022/09/08 09:12:11;;;;;;;;;;;21.00;99.90;;;;;;4893547;29;20319;-79
2022/09/08 09:14:42;;;;;;;;;;;20.70;99.90;;;;;;4911879;29;19918;-76
2022/09/08 09:17:11;;;;;;;;;;;20.20;99.90;;;;;;4920684;29;20357;-75
2022/09/08 09:19:54;;;;;;;;;;;19.50;99.90;;;;;;4918445;29;19919;-76
2022/09/08 09:22:20;;;;;;;;;;;18.80;99.90;;;;;;4924553;29;19934;-76
2022/09/08 09:24:58;;;;;;;;;;;18.40;99.90;;;;;;4899936;29;19954;-77
2022/09/08 09:27:39;;;;;;;;;;;18.30;99.90;;;;;;4915175;29;20014;-77
2022/09/08 09:30:15;;;;;;;;;;;18.70;99.90;;;;;;4890298;29;20018;-75
2022/09/08 09:32:59;;;;;;;;;;;19.40;99.90;;;;;;4905673;29;20034;-75
2022/09/08 09:35:25;;;;;;;;;;;20.60;99.90;;;;;;4899687;29;19981;-73
2022/09/08 09:37:57;;;;;;;;;;;20.90;99.90;;;;;;4912975;29;19923;-74
2022/09/08 09:40:34;;;;;;;;;;;20.50;99.90;;;;;;4903410;29;19925;-75
2022/09/08 09:43:09;;;;;;;;;;;20.40;99.90;;;;;;4912359;29;19970;-75
2022/09/08 09:45:43;;;;;;;;;;;22.00;99.90;;;;;;4897767;29;20302;-75
2022/09/08 09:48:31;;;;;;;;;;;24.00;99.90;;;;;;4894095;29;19966;-75
2022/09/08 09:51:03;;;;;;;;;;;25.40;99.90;;;;;;4912478;29;19919;-75
2022/09/08 09:53:35;;;;;;;;;;;25.80;99.90;;;;;;4911932;29;19923;-75
2022/09/08 09:56:19;;;;;;;;;;;25.10;99.90;;;;;;4916948;29;19915;-74
2022/09/08 09:59:03;;;;;;;;;;;23.80;99.90;;;;;;4914798;29;19925;-75
2022/09/08 10:01:39;;;;;;;;;;;22.30;99.90;;;;;;4919996;29;19919;-74
2022/09/08 10:04:07;;;;;;;;;;;22.70;99.90;;;;;;4918984;29;20091;-73
2022/09/08 10:06:38;;;;;;;;;;;22.40;99.90;;;;;;4921419;29;19934;-74
2022/09/08 10:09:07;;;;;;;;;;;21.90;99.90;;;;;;4904811;29;20344;-74
2022/09/08 10:11:35;;;;;;;;;;;21.10;99.90;;;;;;4920193;29;19919;-72
2022/09/08 10:14:20;;;;;;;;;;;21.20;99.90;;;;;;4918919;29;20473;-73
2022/09/08 10:16:47;;;;;;;;;;;21.40;99.90;;;;;;4918420;29;20009;-72
2022/09/08 10:19:12;;;;;;;;;;;21.10;99.90;;;;;;4915179;29;19933;-72
2022/09/08 10:21:50;;;;;;;;;;;20.50;99.90;;;;;;4918947;29;19919;-72
2022/09/08 10:24:15;;;;;;;;;;;20.00;99.90;;;;;;4917607;29;20492;-73
2022/09/08 10:27:00;;;;;;;;;;;19.50;99.90;;;;;;4914068;29;19923;-72
2022/09/08 10:29:28;;;;;;;;;;;19.10;99.90;;;;;;4913681;29;20476;-72
2022/09/08 10:31:53;;;;;;;;;;;18.80;99.90;;;;;;4912717;29;19927;-72
2022/09/08 10:34:22;;;;;;;;;;;18.50;99.90;;;;;;4918530;29;19918;-73
2022/09/08 10:37:01;;;;;;;;;;;18.30;99.90;;;;;;4921045;29;20338;-74
2022/09/08 10:39:47;;;;;;;;;;;18.20;99.90;;;;;;4925595;29;19922;-73
2022/09/08 10:42:31;;;;;;;;;;;18.20;99.90;;;;;;4924089;29;20025;-73
2022/09/08 10:44:59;;;;;;;;;;;18.20;99.90;;;;;;4906333;29;19981;-76
2022/09/08 10:47:37;;;;;;;;;;;18.10;99.90;;;;;;4921758;29;20336;-75
2022/09/08 10:50:22;;;;;;;;;;;18.00;99.90;;;;;;4921220;29;19934;-75
2022/09/08 10:52:51;;;;;;;;;;;18.10;99.90;;;;;;4914569;29;19941;-75
2022/09/08 10:55:27;;;;;;;;;;;18.10;99.90;;;;;;4921839;29;19919;-75
2022/09/08 10:57:52;;;;;;;;;;;18.10;99.90;;;;;;4922808;29;20009;-75
2022/09/08 11:00:19;;;;;;;;;;;18.10;99.90;;;;;;4919813;29;20017;-75
2022/09/08 11:02:57;;;;;;;;;;;18.00;99.90;;;;;;4905206;29;19918;-73
2022/09/08 11:05:33;;;;;;;;;;;18.00;99.90;;;;;;4922308;29;20405;-74
2022/09/08 11:08:09;;;;;;;;;;;17.90;99.90;;;;;;4909004;29;19934;-74
2022/09/08 11:10:41;;;;;;;;;;;17.90;99.90;;;;;;4897097;29;19918;-73
2022/09/08 11:13:11;;;;;;;;;;;18.00;99.90;;;;;;4914816;29;19918;-73
2022/09/08 11:15:40;;;;;;;;;;;18.00;99.90;;;;;;4896855;29;19926;-72
2022/09/08 11:18:09;;;;;;;;;;;17.90;99.90;;;;;;4916038;29;20570;-73
2022/09/08 11:20:55;;;;;;;;;;;17.80;99.90;;;;;;4899975;29;20331;-75
2022/09/08 11:23:32;;;;;;;;;;;17.80;99.90;;;;;;4911041;29;19919;-75
2022/09/08 11:26:01;;;;;;;;;;;17.80;99.90;;;;;;4890405;29;19919;-78
2022/09/08 11:28:33;;;;;;;;;;;17.90;99.90;;;;;;4908924;29;19945;-73
2022/09/08 11:31:01;;;;;;;;;;;18.10;99.90;;;;;;4914258;29;19923;-72
2022/09/08 11:33:39;;;;;;;;;;;18.30;99.90;;;;;;4899335;29;20328;-73
2022/09/08 11:36:24;;;;;;;;;;;18.40;99.90;;;;;;4893102;29;19926;-73
2022/09/08 11:39:09;;;;;;;;;;;18.40;99.90;;;;;;4903530;29;19977;-73
2022/09/08 11:41:53;;;;;;;;;;;18.50;99.90;;;;;;4891716;29;19926;-78
2022/09/08 11:44:35;;;;;;;;;;;18.60;99.90;;;;;;4916711;29;20408;-84
2022/09/08 11:47:12;;;;;;;;;;;18.40;99.90;;;;;;4915074;29;19927;-79
2022/09/08 11:49:57;;;;;;;;;;;18.00;99.90;;;;;;4910982;29;19930;-75
2022/09/08 11:52:41;;;;;;;;;;;17.60;99.90;;;;;;4888024;29;20052;-79
2022/09/08 11:55:25;;;;;;;;;;;17.30;99.90;;;;;;4911706;29;19969;-81
2022/09/08 11:58:09;;;;;;;;;;;16.90;99.90;;;;;;4913347;29;19955;-80
2022/09/08 12:00:53;;;;;;;;;;;16.60;99.90;;;;;;4913574;29;19919;-77
2022/09/08 12:03:22;;;;;;;;;;;16.40;99.90;;;;;;4912490;29;19938;-77
2022/09/08 12:06:02;;;;;;;;;;;16.30;99.90;;;;;;4916595;29;19958;-73
2022/09/08 12:08:28;;;;;;;;;;;16.30;99.90;;;;;;4917348;29;19933;-72
2022/09/08 12:10:59;;;;;;;;;;;16.30;99.90;;;;;;4905412;29;19918;-72
2022/09/08 12:13:40;;;;;;;;;;;16.40;99.90;;;;;;4897127;29;19974;-72
2022/09/08 12:16:08;;;;;;;;;;;16.50;99.90;;;;;;4924734;29;19926;-73
2022/09/08 12:18:48;;;;;;;;;;;16.70;99.90;;;;;;4923574;29;20381;-72
2022/09/08 12:21:36;;;;;;;;;;;16.90;99.90;;;;;;4918752;29;19930;-72
2022/09/08 12:24:11;;;;;;;;;;;17.30;99.90;;;;;;4892234;29;20215;-73
2022/09/08 12:26:44;;;;;;;;;;;18.10;99.90;;;;;;4920712;29;20021;-73
2022/09/08 12:29:13;;;;;;;;;;;19.50;99.90;;;;;;4911185;29;19973;-72
2022/09/08 12:31:41;;;;;;;;;;;20.60;99.90;;;;;;4923056;29;19923;-72
2022/09/08 12:34:09;;;;;;;;;;;21.20;99.90;;;;;;4923615;29;20466;-73
2022/09/08 12:36:53;;;;;;;;;;;21.10;99.90;;;;;;4923507;29;20022;-73
2022/09/08 12:39:18;;;;;;;;;;;20.70;99.90;;;;;;4936356;29;19945;-72
2022/09/08 12:42:00;;;;;;;;;;;20.10;99.90;;;;;;4925936;29;20382;-73
2022/09/08 12:44:39;;;;;;;;;;;19.70;99.90;;;;;;4906624;29;20317;-73
2022/09/08 12:47:07;;;;;;;;;;;19.30;99.90;;;;;;4922726;29;19975;-73
2022/09/08 12:49:39;;;;;;;;;;;19.00;99.90;;;;;;4921281;29;19957;-72
2022/09/08 12:52:09;;;;;;;;;;;18.90;99.90;;;;;;4922511;29;20292;-72
2022/09/08 12:54:53;;;;;;;;;;;19.50;99.90;;;;;;4921093;29;19919;-72
2022/09/08 12:57:19;;;;;;;;;;;20.00;99.90;;;;;;4915701;29;19930;-72
2022/09/08 12:59:53;;;;;;;;;;;20.40;99.90;;;;;;4901900;29;19919;-72
2022/09/08 13:02:22;;;;;;;;;;;20.30;99.90;;;;;;4897962;29;20279;-72
2022/09/08 13:04:59;;;;;;;;;;;20.10;99.90;;;;;;4917334;29;20066;-71
2022/09/08 13:07:25;;;;;;;;;;;20.00;99.90;;;;;;4920467;29;19927;-72
2022/09/08 13:10:09;;;;;;;;;;;20.00;99.90;;;;;;4920041;29;20394;-72
2022/09/08 13:12:53;;;;;;;;;;;20.10;99.90;;;;;;4931632;29;19969;-73
2022/09/08 13:15:42;;;;;;;;;;;20.20;99.90;;;;;;4897374;29;19919;-71
2022/09/08 13:18:07;;;;;;;;;;;20.30;99.90;;;;;;4892994;29;20366;-71
2022/09/08 13:20:40;;;;;;;;;;;19.90;99.90;;;;;;4919785;29;19927;-71
2022/09/08 13:23:06;;;;;;;;;;;19.60;99.90;;;;;;4920810;29;20017;-72
2022/09/08 13:25:43;;;;;;;;;;;19.20;99.90;;;;;;4917923;29;20038;-72
2022/09/08 13:28:16;;;;;;;;;;;18.90;99.90;;;;;;4926364;29;19927;-73
2022/09/08 13:31:00;;;;;;;;;;;18.60;99.90;;;;;;4921432;29;19978;-72
2022/09/08 13:33:25;;;;;;;;;;;18.40;99.90;;;;;;4907562;29;19981;-71
2022/09/08 13:36:09;;;;;;;;;;;18.40;99.90;;;;;;4924862;29;19981;-72
2022/09/08 13:38:53;;;;;;;;;;;18.30;99.90;;;;;;4926797;29;19921;-72
2022/09/08 13:41:28;;;;;;;;;;;18.40;99.90;;;;;;4912019;29;20022;-72
2022/09/08 13:43:56;;;;;;;;;;;18.60;99.90;;;;;;4923890;29;19922;-73
2022/09/08 13:46:43;;;;;;;;;;;19.10;99.90;;;;;;4923668;29;19915;-73
2022/09/08 13:49:38;;;;;;;;;;;19.60;99.90;;;;;;4904029;29;20033;-72
2022/09/08 13:52:22;;;;;;;;;;;20.10;99.90;;;;;;4905687;29;20520;-72
2022/09/08 13:55:00;;;;;;;;;;;20.90;99.90;;;;;;4890177;29;19919;-72
2022/09/08 13:57:50;;;;;;;;;;;21.10;99.90;;;;;;4910399;29;19919;-72
2022/09/08 14:00:21;;;;;;;;;;;20.90;99.90;;;;;;4577149;29;10000484;-72
2022/09/08 14:02:59;;;;;;;;;;;20.80;99.90;;;;;;4916631;29;21977;-72
2022/09/08 14:05:28;;;;;;;;;;;20.70;99.90;;;;;;4916887;29;20590;-71
2022/09/08 14:07:58;;;;;;;;;;;20.80;99.90;;;;;;4919918;29;19922;-71
2022/09/08 14:10:42;;;;;;;;;;;21.10;99.90;;;;;;4918342;29;20001;-72
2022/09/08 14:13:08;;;;;;;;;;;21.40;99.90;;;;;;4921658;29;20005;-72
2022/09/08 14:15:39;;;;;;;;;;;21.70;99.90;;;;;;4913863;29;20314;-72
2022/09/08 14:18:15;;;;;;;;;;;21.80;99.90;;;;;;4905207;29;19918;-72
2022/09/08 14:20:55;;;;;;;;;;;21.70;99.90;;;;;;4909697;29;19918;-72
2022/09/08 14:23:24;;;;;;;;;;;21.30;99.90;;;;;;4905146;29;20145;-73
2022/09/08 14:25:50;;;;;;;;;;;20.70;99.90;;;;;;4910172;29;20395;-72
2022/09/08 14:28:19;;;;;;;;;;;20.30;99.90;;;;;;4914675;29;20130;-73
2022/09/08 14:30:47;;;;;;;;;;;20.00;99.90;;;;;;4920378;29;19942;-72
2022/09/08 14:33:16;;;;;;;;;;;19.70;99.90;;;;;;4901020;29;19923;-73
2022/09/08 14:35:45;;;;;;;;;;;19.60;99.90;;;;;;4917768;29;20320;-73
2022/09/08 14:38:21;;;;;;;;;;;19.40;99.90;;;;;;4919858;29;20298;-72
2022/09/08 14:40:48;;;;;;;;;;;19.20;99.90;;;;;;4902109;29;19977;-72
2022/09/08 14:43:20;;;;;;;;;;;19.00;99.90;;;;;;4918148;29;20010;-71